Time;durP1;ratioP1;P1;durP2;ratioP2;P2;SDS_P1;SDS_P2;PMS_P1;PMS_P2;Temp;Humidity;BMP_temperature;BMP_pressure;BME280_temperature;BME280_humidity;BME280_pressure;Samples;Min_cycle;Max_cycle;Signal;HPM_P1;HPM_P2
2022/06/26 00:01:16;;;;;;;1.42;1.30;;;;;;;18.96;89.30;96010.97;5030894;28;20205;-71
2022/06/26 00:03:42;;;;;;;2.28;1.48;;;;;;;18.80;90.44;96013.53;5030494;28;20301;-71
2022/06/26 00:06:11;;;;;;;2.55;1.70;;;;;;;18.83;91.49;96018.41;5030967;28;20229;-71
2022/06/26 00:08:37;;;;;;;4.35;1.83;;;;;;;18.69;92.49;96025.00;5030524;28;20229;-71
2022/06/26 00:11:04;;;;;;;4.35;1.98;;;;;;;18.86;91.28;96027.81;5030354;28;20205;-71
2022/06/26 00:13:30;;;;;;;2.28;1.85;;;;;;;18.87;92.42;96021.41;5029812;28;20201;-71
2022/06/26 00:15:57;;;;;;;8.48;2.22;;;;;;;18.77;92.28;96018.50;5030446;28;20291;-71
2022/06/26 00:18:24;;;;;;;3.92;1.85;;;;;;;18.76;91.86;96022.22;5030384;28;20713;-70
2022/06/26 00:20:50;;;;;;;5.60;1.88;;;;;;;18.39;91.55;96032.31;5029054;28;20268;-71
2022/06/26 00:23:18;;;;;;;2.60;1.77;;;;;;;18.59;92.08;96024.75;5030008;28;20205;-71
2022/06/26 00:25:44;;;;;;;5.55;1.77;;;;;;;18.59;91.32;96030.09;5029554;28;20230;-71
2022/06/26 00:28:11;;;;;;;2.17;1.70;;;;;;;18.64;91.97;96035.56;5030042;28;20202;-71
2022/06/26 00:30:37;;;;;;;6.10;2.60;;;;;;;18.69;92.52;96038.34;5029910;28;20677;-71
2022/06/26 00:33:04;;;;;;;3.72;1.98;;;;;;;18.63;93.15;96044.59;5029880;28;20202;-70
2022/06/26 00:35:30;;;;;;;8.07;2.28;;;;;;;18.46;92.33;96046.34;5029984;28;20901;-70
2022/06/26 00:37:57;;;;;;;3.45;1.98;;;;;;;18.12;93.15;96059.56;5029872;28;20225;-71
2022/06/26 00:40:25;;;;;;;3.35;2.05;;;;;;;18.48;93.36;96054.94;5029818;28;20701;-71
2022/06/26 00:42:51;;;;;;;5.38;2.35;;;;;;;18.45;91.97;96060.72;5029438;28;20206;-70
2022/06/26 00:45:18;;;;;;;2.75;1.90;;;;;;;18.42;92.14;96052.38;5029693;28;20732;-71
2022/06/26 00:47:45;;;;;;;6.82;2.22;;;;;;;18.38;91.41;96054.69;5029936;28;20684;-70
2022/06/26 00:50:12;;;;;;;3.00;1.58;;;;;;;18.26;91.91;96060.22;5029819;28;20213;-71
2022/06/26 00:52:41;;;;;;;2.25;1.85;;;;;;;18.41;91.43;96054.22;5029353;28;20206;-71
2022/06/26 00:55:08;;;;;;;3.55;1.45;;;;;;;18.45;91.09;96057.25;5029284;28;20595;-71
2022/06/26 00:57:37;;;;;;;2.25;1.80;;;;;;;18.49;90.18;96061.06;5029505;28;20222;-70
2022/06/26 01:00:06;;;;;;;4.10;1.70;;;;;;;18.26;90.26;96068.22;5029170;28;20206;-70
2022/06/26 01:02:32;;;;;;;2.50;1.70;;;;;;;18.32;90.42;96062.78;5029229;28;20210;-71
2022/06/26 01:04:58;;;;;;;2.90;1.80;;;;;;;18.17;90.00;96066.91;5029277;28;20198;-71
2022/06/26 01:07:26;;;;;;;4.50;1.85;;;;;;;18.15;89.01;96064.47;5028511;28;20387;-70
2022/06/26 01:09:52;;;;;;;4.38;1.60;;;;;;;18.09;90.00;96062.69;5028753;28;20210;-71
2022/06/26 01:12:19;;;;;;;5.82;1.90;;;;;;;18.09;92.37;96059.22;5029263;28;20209;-71
2022/06/26 01:14:48;;;;;;;2.13;1.55;;;;;;;18.11;92.45;96057.13;5028687;28;20692;-71
2022/06/26 01:17:14;;;;;;;3.17;1.80;;;;;;;17.93;94.54;96060.66;5029286;28;20233;-70
2022/06/26 01:19:41;;;;;;;2.53;1.80;;;;;;;17.91;94.81;96057.41;5027947;28;20225;-71
2022/06/26 01:22:08;;;;;;;2.65;2.00;;;;;;;18.04;93.80;96061.75;5028375;28;20209;-71
2022/06/26 01:24:36;;;;;;;3.38;1.70;;;;;;;18.19;92.00;96064.81;5028657;28;20287;-71
2022/06/26 01:27:02;;;;;;;2.28;1.50;;;;;;;17.94;92.80;96069.47;5028554;28;20226;-70
2022/06/26 01:29:29;;;;;;;3.15;1.95;;;;;;;17.87;94.79;96071.41;5029162;28;20202;-70
2022/06/26 01:31:55;;;;;;;4.93;1.80;;;;;;;17.98;93.39;96065.31;5028985;28;20198;-70
2022/06/26 01:34:22;;;;;;;2.65;1.60;;;;;;;17.97;92.70;96066.34;5028711;28;20729;-71
2022/06/26 01:36:50;;;;;;;2.92;1.70;;;;;;;17.75;92.39;96073.22;5028956;28;20253;-70
2022/06/26 01:39:19;;;;;;;11.02;2.55;;;;;;;17.90;94.45;96065.63;5028131;28;20545;-71
2022/06/26 01:41:49;;;;;;;2.58;1.90;;;;;;;17.88;94.48;96068.53;5028560;28;20210;-71
2022/06/26 01:44:17;;;;;;;3.20;2.33;;;;;;;17.89;95.18;96074.66;5027619;28;20201;-71
2022/06/26 01:46:44;;;;;;;4.32;1.98;;;;;;;17.88;95.75;96071.19;5027993;28;20284;-71
2022/06/26 01:49:12;;;;;;;3.03;2.15;;;;;;;17.94;95.53;96066.81;5028547;28;20248;-71
2022/06/26 01:51:40;;;;;;;6.57;2.72;;;;;;;17.87;96.24;96066.06;5028034;28;20236;-71
2022/06/26 01:54:08;;;;;;;3.78;2.20;;;;;;;17.80;96.79;96065.34;5027379;28;20645;-71
2022/06/26 01:56:36;;;;;;;3.35;2.17;;;;;;;17.76;97.22;96064.19;5028048;28;20411;-71
2022/06/26 01:59:05;;;;;;;6.25;2.40;;;;;;;17.81;98.11;96067.00;5028109;28;20710;-71
2022/06/26 02:01:33;;;;;;;3.63;2.33;;;;;;;17.78;98.49;96067.41;5028207;28;20204;-70
2022/06/26 02:04:01;;;;;;;4.03;2.50;;;;;;;17.81;98.23;96067.00;5027644;28;20201;-71
2022/06/26 02:06:28;;;;;;;2.97;2.10;;;;;;;17.81;98.61;96069.66;5026895;28;20272;-69
2022/06/26 02:08:56;;;;;;;4.60;2.30;;;;;;;17.95;96.31;96071.09;5027754;28;20291;-71
2022/06/26 02:14:09;;;;;;;3.75;2.25;;;;;;;17.64;97.19;96081.16;5027664;28;20335;-71
2022/06/26 02:16:37;;;;;;;3.90;2.30;;;;;;;17.75;95.84;96082.00;5027974;28;20569;-71
2022/06/26 02:19:05;;;;;;;4.22;2.15;;;;;;;17.66;96.47;96079.88;5026707;28;20225;-71
2022/06/26 02:21:35;;;;;;;3.10;2.05;;;;;;;17.83;95.17;96078.22;5027776;28;20313;-71
2022/06/26 02:24:01;;;;;;;3.55;2.08;;;;;;;17.92;94.92;96076.88;5028884;28;20261;-72
2022/06/26 02:26:28;;;;;;;4.10;2.10;;;;;;;17.87;95.27;96074.91;5030378;28;20221;-72
2022/06/26 02:28:54;;;;;;;6.95;2.40;;;;;;;17.88;94.91;96070.38;5030473;28;20535;-72
2022/06/26 02:31:23;;;;;;;2.85;2.22;;;;;;;17.89;95.75;96077.34;5030565;28;20210;-72
2022/06/26 02:33:50;;;;;;;2.53;1.83;;;;;;;17.59;97.53;96087.16;5030272;28;20224;-72
2022/06/26 02:36:16;;;;;;;4.25;2.08;;;;;;;17.41;98.36;96083.69;5031764;28;20240;-72
2022/06/26 02:38:43;;;;;;;4.00;2.00;;;;;;;17.51;98.53;96084.78;5034044;28;20230;-72
2022/06/26 02:41:09;;;;;;;7.97;2.58;;;;;;;17.40;97.64;96084.72;5033806;28;20661;-72
2022/06/26 02:43:36;;;;;;;6.68;2.30;;;;;;;17.52;97.81;96093.59;5033298;28;20663;-72
2022/06/26 02:46:03;;;;;;;5.50;2.42;;;;;;;17.61;97.36;96095.72;5032711;28;20226;-71
2022/06/26 02:48:31;;;;;;;3.17;2.50;;;;;;;17.67;97.04;96092.19;5031965;28;20237;-71
2022/06/26 02:50:57;;;;;;;3.55;2.38;;;;;;;17.30;97.36;96087.91;5032775;28;20201;-71
2022/06/26 02:53:24;;;;;;;5.20;2.35;;;;;;;17.49;97.68;96075.38;5032204;28;20206;-73
2022/06/26 02:55:51;;;;;;;6.20;2.85;;;;;;;17.53;98.04;96081.91;5032417;28;20222;-71
2022/06/26 02:58:17;;;;;;;3.80;2.20;;;;;;;17.40;98.66;96080.22;5032694;28;20222;-73
2022/06/26 03:00:44;;;;;;;7.07;2.17;;;;;;;17.44;98.42;96078.72;5032885;28;20198;-72
2022/06/26 03:03:11;;;;;;;4.88;2.40;;;;;;;17.55;96.87;96079.81;5032207;28;20194;-71
2022/06/26 03:05:39;;;;;;;2.78;2.33;;;;;;;17.67;96.60;96089.53;5032059;28;20280;-71
2022/06/26 03:08:06;;;;;;;3.95;2.17;;;;;;;17.11;96.14;96086.22;5032410;28;20198;-71
2022/06/26 03:10:32;;;;;;;9.88;2.20;;;;;;;16.96;98.15;96108.09;5032299;28;20198;-71
2022/06/26 03:13:00;;;;;;;7.00;2.30;;;;;;;16.50;100.00;96123.63;5032204;28;20202;-71
2022/06/26 03:15:26;;;;;;;7.07;2.72;;;;;;;16.68;100.00;96121.03;5032412;28;20280;-71
2022/06/26 03:17:54;;;;;;;4.43;2.65;;;;;;;16.96;100.00;96124.06;5031971;28;20231;-71
2022/06/26 03:20:21;;;;;;;4.80;2.65;;;;;;;17.08;100.00;96122.31;5030899;28;20288;-72
2022/06/26 03:22:50;;;;;;;3.78;2.85;;;;;;;17.28;100.00;96124.56;5031972;28;20202;-71
2022/06/26 03:25:17;;;;;;;9.80;2.30;;;;;;;17.29;100.00;96120.88;5031822;28;20720;-71
2022/06/26 03:27:43;;;;;;;5.75;2.50;;;;;;;17.40;100.00;96128.16;5031707;28;20311;-71
2022/06/26 03:30:13;;;;;;;5.35;2.67;;;;;;;17.68;97.94;96115.13;5032045;28;20194;-73
2022/06/26 03:32:39;;;;;;;6.18;2.38;;;;;;;17.41;97.95;96113.81;5031676;28;20574;-73
2022/06/26 03:35:07;;;;;;;3.92;2.40;;;;;;;17.47;98.74;96112.91;5031677;28;20228;-72
2022/06/26 03:37:34;;;;;;;4.10;2.55;;;;;;;17.59;97.90;96110.31;5031483;28;20229;-72
2022/06/26 03:40:02;;;;;;;7.60;2.65;;;;;;;17.54;98.61;96110.16;5031765;28;20202;-73
2022/06/26 03:42:29;;;;;;;3.38;2.55;;;;;;;17.50;98.67;96109.81;5031451;28;20205;-71
2022/06/26 03:44:55;;;;;;;3.85;2.63;;;;;;;17.50;97.25;96107.16;5031736;28;20190;-72
2022/06/26 03:47:22;;;;;;;8.13;3.35;;;;;;;17.15;99.54;96102.59;5031583;28;20213;-71
2022/06/26 03:49:52;;;;;;;4.65;3.03;;;;;;;16.88;100.00;96100.38;5032189;28;20201;-71
2022/06/26 03:52:19;;;;;;;4.97;3.17;;;;;;;16.67;100.00;96095.44;5031548;28;20208;-71
2022/06/26 03:54:45;;;;;;;8.57;3.20;;;;;;;16.53;100.00;96096.59;5031412;28;20209;-71
2022/06/26 03:57:13;;;;;;;4.78;3.17;;;;;;;16.57;100.00;96098.63;5031472;28;20206;-71
2022/06/26 03:59:40;;;;;;;7.97;3.17;;;;;;;16.65;100.00;96100.19;5030970;28;20225;-72
2022/06/26 04:02:06;;;;;;;6.35;3.25;;;;;;;16.84;100.00;96105.34;5030954;28;20198;-74
2022/06/26 04:04:33;;;;;;;8.70;3.10;;;;;;;16.92;100.00;96101.59;5030386;28;20213;-73
2022/06/26 04:06:59;;;;;;;7.05;3.22;;;;;;;16.98;100.00;96100.69;5030831;28;20225;-71
2022/06/26 04:09:26;;;;;;;4.97;3.10;;;;;;;17.07;100.00;96102.03;5031346;28;20570;-72
2022/06/26 04:11:52;;;;;;;4.40;2.70;;;;;;;17.00;100.00;96098.66;5031274;28;20198;-73
2022/06/26 04:14:20;;;;;;;4.65;2.72;;;;;;;17.06;100.00;96087.94;5030462;28;20276;-72
2022/06/26 04:16:46;;;;;;;3.53;2.70;;;;;;;16.88;100.00;96084.41;5029861;28;20222;-72
2022/06/26 04:19:13;;;;;;;5.43;3.05;;;;;;;16.91;100.00;96089.31;5029236;28;20228;-72
2022/06/26 04:21:39;;;;;;;6.30;3.47;;;;;;;17.04;100.00;96084.66;5030316;28;20198;-71
2022/06/26 04:24:06;;;;;;;5.15;3.47;;;;;;;17.26;100.00;96083.22;5029972;28;20213;-72
2022/06/26 04:26:33;;;;;;;4.70;3.30;;;;;;;17.51;100.00;96082.13;5030120;28;20218;-73
2022/06/26 04:28:59;;;;;;;6.75;2.80;;;;;;;18.03;99.90;96092.13;5030058;28;20287;-73
2022/06/26 04:31:27;;;;;;;4.38;2.65;;;;;;;18.33;97.43;96100.94;5030376;28;20202;-73
2022/06/26 04:33:54;;;;;;;3.92;2.90;;;;;;;18.37;98.03;96102.94;5030004;28;20228;-73
2022/06/26 04:36:21;;;;;;;5.18;2.67;;;;;;;18.25;97.64;96101.25;5029380;28;20232;-75
2022/06/26 04:38:47;;;;;;;7.45;2.60;;;;;;;18.37;97.97;96103.75;5029915;28;20230;-75
2022/06/26 04:43:58;;;;;;;6.05;3.05;;;;;;;18.76;94.01;96100.47;5029427;28;20216;-75
2022/06/26 04:46:24;;;;;;;4.32;2.40;;;;;;;18.92;92.06;96107.78;5029929;28;20230;-74
2022/06/26 04:48:52;;;;;;;5.18;2.80;;;;;;;18.78;93.87;96130.41;5029763;28;20208;-75
2022/06/26 04:51:19;;;;;;;4.78;2.78;;;;;;;18.33;99.38;96142.59;5029496;28;20202;-74
2022/06/26 04:53:46;;;;;;;3.95;2.60;;;;;;;18.73;96.83;96130.28;5029219;28;20670;-74
2022/06/26 04:56:12;;;;;;;3.78;2.88;;;;;;;18.83;96.24;96127.88;5029389;28;20214;-75
2022/06/26 04:58:39;;;;;;;7.20;3.33;;;;;;;19.13;93.32;96123.25;5028794;28;20222;-75
2022/06/26 05:01:05;;;;;;;3.65;2.55;;;;;;;19.29;90.88;96130.59;5029705;28;20213;-75
2022/06/26 05:03:32;;;;;;;3.03;2.30;;;;;;;19.61;90.52;96122.78;5029247;28;20206;-75
2022/06/26 05:06:00;;;;;;;3.88;2.45;;;;;;;19.82;89.20;96119.47;5029368;28;20225;-75
2022/06/26 05:08:27;;;;;;;4.28;2.50;;;;;;;19.97;87.16;96124.34;5029255;28;20194;-75
2022/06/26 05:10:53;;;;;;;3.58;2.22;;;;;;;19.72;86.99;96137.97;5029097;28;20204;-75
2022/06/26 05:13:20;;;;;;;2.72;2.00;;;;;;;19.98;86.43;96131.31;5029406;28;20194;-75
2022/06/26 05:15:47;;;;;;;3.63;2.47;;;;;;;20.06;85.00;96130.94;5029183;28;20812;-75
2022/06/26 05:18:13;;;;;;;3.60;2.20;;;;;;;19.76;87.42;96146.34;5029373;28;20232;-75
2022/06/26 05:20:40;;;;;;;3.05;2.30;;;;;;;19.51;90.50;96145.78;5027436;28;20645;-74
2022/06/26 05:23:09;;;;;;;2.92;2.53;;;;;;;19.45;89.76;96148.59;5029023;28;20202;-74
2022/06/26 05:25:36;;;;;;;7.63;2.50;;;;;;;19.50;91.44;96149.53;5028693;28;20303;-75
2022/06/26 05:28:02;;;;;;;3.15;2.42;;;;;;;19.58;91.02;96135.81;5029372;28;20197;-75
2022/06/26 05:30:29;;;;;;;2.67;2.33;;;;;;;19.92;88.90;96137.59;5029279;28;20202;-75
2022/06/26 05:32:55;;;;;;;2.63;2.15;;;;;;;20.00;89.88;96142.63;5029055;28;20194;-75
2022/06/26 05:35:21;;;;;;;3.92;2.50;;;;;;;19.95;89.73;96131.81;5028904;28;20229;-74
2022/06/26 05:37:48;;;;;;;8.70;2.90;;;;;;;20.09;89.10;96135.84;5028810;28;20753;-75
2022/06/26 05:40:16;;;;;;;3.42;2.35;;;;;;;20.25;86.54;96138.53;5029260;28;20197;-75
2022/06/26 05:42:42;;;;;;;4.82;2.70;;;;;;;20.37;88.46;96145.47;5028486;28;20227;-75
2022/06/26 05:45:10;;;;;;;7.38;2.75;;;;;;;20.57;86.63;96139.69;5029048;28;20222;-75
2022/06/26 05:47:36;;;;;;;4.43;2.50;;;;;;;20.59;85.36;96149.09;5028976;28;20198;-75
2022/06/26 05:50:03;;;;;;;3.72;2.60;;;;;;;20.57;84.76;96150.38;5028928;28;20787;-75
2022/06/26 05:52:30;;;;;;;7.38;2.40;;;;;;;20.79;85.21;96148.69;5028407;28;20204;-75
2022/06/26 05:54:56;;;;;;;4.13;2.85;;;;;;;20.86;83.49;96150.13;5028795;28;20218;-75
2022/06/26 05:57:25;;;;;;;3.78;2.67;;;;;;;21.29;82.90;96153.00;5028607;28;20245;-75
2022/06/26 05:59:52;;;;;;;4.07;2.40;;;;;;;21.35;80.83;96154.72;5028741;28;20312;-75
2022/06/26 06:02:18;;;;;;;3.92;2.08;;;;;;;21.24;81.52;96142.19;5028614;28;20296;-75
2022/06/26 06:04:45;;;;;;;5.13;2.20;;;;;;;21.36;81.65;96153.63;5028514;28;20198;-75
2022/06/26 06:07:11;;;;;;;2.20;2.00;;;;;;;21.73;80.73;96140.28;5028691;28;20197;-75
2022/06/26 06:09:38;;;;;;;4.32;2.28;;;;;;;21.90;79.38;96149.09;5028742;28;20194;-75
2022/06/26 06:12:05;;;;;;;3.70;2.00;;;;;;;22.13;77.42;96144.31;5028778;28;20213;-75
2022/06/26 06:14:33;;;;;;;7.03;2.47;;;;;;;22.06;78.60;96143.66;5028557;28;20670;-75
2022/06/26 06:17:35;;;;;;;3.38;2.10;;;;;;;22.03;78.70;96143.34;5027514;28;20678;-75
2022/06/26 06:19:46;;;;;;;3.33;2.08;;;;;;;22.05;77.75;96147.41;5026771;28;20258;-75
2022/06/26 06:22:13;;;;;;;4.82;1.77;;;;;;;22.20;80.51;96150.28;5027276;28;20291;-75
2022/06/26 06:24:39;;;;;;;3.75;1.95;;;;;;;22.39;77.76;96146.25;5027462;28;20209;-75
2022/06/26 06:27:06;;;;;;;4.40;2.00;;;;;;;22.53;77.00;96147.47;5027340;28;20812;-75
2022/06/26 06:29:34;;;;;;;3.97;1.75;;;;;;;22.61;76.10;96147.00;5027556;28;20244;-75
2022/06/26 06:32:00;;;;;;;3.67;1.88;;;;;;;22.56;77.21;96148.84;5026841;28;20208;-75
2022/06/26 06:34:27;;;;;;;3.42;2.00;;;;;;;22.84;75.41;96152.88;5027657;28;20205;-75
2022/06/26 06:36:53;;;;;;;3.25;1.60;;;;;;;22.72;72.19;96152.22;5027869;28;20232;-75
2022/06/26 06:39:20;;;;;;;1.90;1.70;;;;;;;22.94;71.63;96136.03;5018729;28;20222;-75
2022/06/26 06:41:47;;;;;;;2.55;1.60;;;;;;;23.02;74.02;96144.47;5015629;28;20213;-75
2022/06/26 06:44:14;;;;;;;2.17;1.70;;;;;;;23.08;72.97;96132.69;5012330;28;20209;-75
2022/06/26 06:46:42;;;;;;;3.97;1.70;;;;;;;23.20;69.46;96141.38;5022061;28;20224;-75
2022/06/26 06:49:08;;;;;;;2.38;1.65;;;;;;;23.15;70.91;96141.34;5028490;28;20195;-75
2022/06/26 06:51:35;;;;;;;1.73;1.40;;;;;;;23.32;69.32;96145.53;5028254;28;20201;-75
2022/06/26 06:54:01;;;;;;;3.80;1.92;;;;;;;23.59;69.13;96145.44;5027944;28;20213;-75
2022/06/26 06:56:28;;;;;;;2.80;1.80;;;;;;;23.54;69.33;96132.75;5027923;28;20705;-75
2022/06/26 06:58:54;;;;;;;2.83;1.65;;;;;;;23.54;69.52;96140.84;5027609;28;20218;-75
2022/06/26 07:01:22;;;;;;;3.42;1.45;;;;;;;23.61;71.09;96133.38;5027945;28;20229;-75
2022/06/26 07:03:50;;;;;;;12.68;1.85;;;;;;;23.53;72.35;96131.13;5027941;28;20213;-75
2022/06/26 07:06:16;;;;;;;5.88;1.65;;;;;;;23.44;71.99;96132.69;5028023;28;20221;-76
2022/06/26 07:08:43;;;;;;;5.10;2.03;;;;;;;23.65;69.70;96126.38;5026339;28;20206;-76
2022/06/26 07:11:09;;;;;;;4.03;1.70;;;;;;;23.41;72.61;96133.22;5027184;28;20198;-75
2022/06/26 07:13:36;;;;;;;2.83;1.52;;;;;;;23.56;68.77;96130.63;5025152;28;20202;-76
2022/06/26 07:16:03;;;;;;;2.70;1.90;;;;;;;23.56;68.45;96140.56;5027958;28;20222;-75
2022/06/26 07:18:29;;;;;;;2.10;1.60;;;;;;;23.72;67.40;96134.25;5027818;28;20196;-75
2022/06/26 07:20:57;;;;;;;1.50;1.33;;;;;;;23.86;68.33;96133.53;5027647;28;20208;-75
2022/06/26 07:23:24;;;;;;;3.05;1.65;;;;;;;23.70;69.19;96126.44;5030215;28;20217;-75
2022/06/26 07:25:51;;;;;;;2.85;1.80;;;;;;;23.94;68.83;96125.75;5031295;28;20229;-76
2022/06/26 07:28:17;;;;;;;2.72;1.77;;;;;;;24.14;67.96;96119.66;5030186;28;20206;-75
2022/06/26 07:30:44;;;;;;;5.80;2.33;;;;;;;24.13;67.70;96126.09;5031212;28;20569;-75
2022/06/26 07:35:51;;;;;;;3.55;1.80;;;;;;;24.07;69.83;96129.84;5017780;28;20680;-75
2022/06/26 07:38:19;;;;;;;2.45;1.70;;;;;;;24.30;69.05;96124.00;5027448;28;20202;-75
2022/06/26 07:40:46;;;;;;;2.78;1.70;;;;;;;24.34;69.19;96125.91;5018190;28;20280;-76
2022/06/26 07:43:12;;;;;;;2.25;1.52;;;;;;;24.50;68.49;96127.59;5019243;28;20209;-76
2022/06/26 07:45:39;;;;;;;3.08;1.67;;;;;;;24.60;64.69;96125.75;5029818;28;20233;-76
2022/06/26 07:48:06;;;;;;;4.13;1.90;;;;;;;24.60;66.23;96127.63;5030971;28;20573;-76
2022/06/26 07:50:33;;;;;;;6.45;1.50;;;;;;;24.60;65.06;96120.38;5029809;28;20207;-75
2022/06/26 07:52:59;;;;;;;2.05;1.63;;;;;;;24.45;68.55;96124.09;5018531;28;20205;-76
2022/06/26 07:55:27;;;;;;;2.70;1.80;;;;;;;24.75;65.70;96123.06;5021544;28;20226;-75
2022/06/26 07:57:54;;;;;;;3.67;1.92;;;;;;;24.53;67.41;96123.56;5030802;28;20206;-76
2022/06/26 08:00:21;;;;;;;4.65;1.80;;;;;;;24.53;67.15;96121.69;5030744;28;20218;-76
2022/06/26 08:02:47;;;;;;;5.25;1.70;;;;;;;24.54;66.82;96117.91;5018296;28;21121;-75
2022/06/26 08:05:14;;;;;;;2.78;1.40;;;;;;;24.76;65.75;96119.31;5020831;28;20225;-76
2022/06/26 08:07:40;;;;;;;4.63;2.05;;;;;;;24.73;67.92;96117.16;5030304;28;20198;-75
2022/06/26 08:57:39;;;;;;;1.85;1.55;;;;;;;26.74;60.99;96106.47;4869082;29;20237;-76
2022/06/26 10:29:27;;;;;;;4.22;1.10;;;;;;;28.67;54.20;96082.84;4787950;29;20576;-72
2022/06/26 12:28:58;;;;;;;1.70;1.08;;;;;;;31.22;46.62;96010.38;4884597;29;20449;-74
2022/06/26 12:31:27;;;;;;;0.93;0.82;;;;;;;31.04;44.56;96005.94;4949326;28;20207;-75
2022/06/26 12:33:54;;;;;;;4.88;0.98;;;;;;;31.56;43.33;96003.22;5017096;28;20217;-74
2022/06/26 12:36:20;;;;;;;1.75;0.80;;;;;;;31.53;44.73;95989.41;5020225;28;20226;-74
2022/06/26 12:38:47;;;;;;;2.13;0.90;;;;;;;31.54;46.26;95999.19;5029887;28;20218;-74
2022/06/26 12:41:17;;;;;;;1.42;0.95;;;;;;;31.89;42.24;95981.88;5030113;28;20226;-73
2022/06/26 12:43:45;;;;;;;0.82;0.80;;;;;;;31.71;42.73;95986.47;5028233;28;20216;-75
2022/06/26 12:46:12;;;;;;;1.50;1.05;;;;;;;31.73;42.53;95991.59;5029742;28;20221;-74
2022/06/26 12:48:40;;;;;;;0.90;0.90;;;;;;;31.52;46.05;95985.91;5029783;28;20204;-75
2022/06/26 12:51:07;;;;;;;2.08;0.90;;;;;;;31.53;45.04;95976.63;5029816;28;20209;-75
2022/06/26 12:53:34;;;;;;;2.30;0.90;;;;;;;31.34;46.28;95982.56;5028972;28;20677;-74
2022/06/26 12:56:01;;;;;;;1.65;1.02;;;;;;;31.56;43.34;95977.91;5022750;28;20347;-75
2022/06/26 12:58:27;;;;;;;1.42;1.00;;;;;;;31.58;43.16;95973.75;5016673;28;20210;-75
2022/06/26 13:00:54;;;;;;;1.13;0.90;;;;;;;31.82;41.78;95976.88;5026080;28;20226;-75
2022/06/26 13:03:21;;;;;;;2.05;1.00;;;;;;;31.65;41.19;95978.75;5020947;28;20665;-75
2022/06/26 13:05:49;;;;;;;1.65;0.82;;;;;;;31.81;41.29;95982.63;5017222;28;20233;-74
2022/06/26 13:08:16;;;;;;;1.08;0.90;;;;;;;31.63;41.18;95981.78;5027031;28;20205;-75
2022/06/26 13:10:44;;;;;;;1.65;0.95;;;;;;;31.84;44.66;95976.56;5029383;28;20246;-75
2022/06/26 13:13:11;;;;;;;1.00;0.80;;;;;;;31.81;43.63;95977.19;5029033;28;20205;-75
2022/06/26 13:15:38;;;;;;;1.95;0.90;;;;;;;32.10;43.88;95972.03;5029191;28;20226;-75
2022/06/26 13:18:05;;;;;;;2.00;1.23;;;;;;;32.35;44.50;95975.56;5029018;28;20201;-76
2022/06/26 13:20:31;;;;;;;1.48;0.93;;;;;;;32.60;42.89;95963.91;5028315;28;20229;-75
2022/06/26 13:22:59;;;;;;;0.90;0.80;;;;;;;32.29;40.24;95965.97;5028546;28;20197;-75
2022/06/26 13:25:26;;;;;;;2.47;1.00;;;;;;;31.75;42.86;95973.03;5029030;28;20222;-75
2022/06/26 13:27:54;;;;;;;2.00;0.98;;;;;;;31.74;42.66;95969.47;5029120;28;20202;-75
2022/06/26 13:30:21;;;;;;;2.70;1.00;;;;;;;31.83;46.51;95975.75;5028314;28;20221;-75
2022/06/26 13:32:47;;;;;;;0.88;0.85;;;;;;;31.33;44.38;95970.09;5024466;28;20213;-75
2022/06/26 13:35:14;;;;;;;1.20;1.00;;;;;;;31.98;44.70;95972.59;5016569;28;20221;-75
2022/06/26 13:37:42;;;;;;;1.58;0.80;;;;;;;32.41;44.96;95971.59;5021360;28;20206;-75
2022/06/26 13:40:12;;;;;;;1.40;0.82;;;;;;;32.65;43.76;95977.41;5027239;28;20222;-75
2022/06/26 13:42:39;;;;;;;1.10;0.80;;;;;;;32.73;42.05;95976.59;5028052;28;20205;-75
2022/06/26 13:45:06;;;;;;;1.27;0.90;;;;;;;33.28;42.55;95970.09;5028621;28;20736;-75
2022/06/26 13:47:32;;;;;;;0.80;0.80;;;;;;;33.15;44.74;95971.09;5028564;28;20194;-75
2022/06/26 13:49:59;;;;;;;0.85;0.85;;;;;;;32.61;42.89;95970.97;5028561;28;20198;-76
2022/06/26 13:52:25;;;;;;;1.83;0.80;;;;;;;31.73;43.86;95969.78;5028295;28;20210;-76
2022/06/26 13:54:52;;;;;;;1.75;0.70;;;;;;;31.23;43.88;95968.41;5028408;28;20198;-75
2022/06/26 13:57:20;;;;;;;8.38;0.80;;;;;;;31.54;44.14;95966.50;5028701;28;20198;-75
2022/06/26 13:59:46;;;;;;;3.53;1.30;;;;;;;30.93;47.27;95962.91;5028032;28;20201;-76
2022/06/26 14:02:15;;;;;;;1.58;0.82;;;;;;;30.69;44.58;95961.63;5027600;28;20213;-76
2022/06/26 14:04:41;;;;;;;0.93;0.90;;;;;;;30.27;47.14;95962.06;5017803;28;20206;-76
2022/06/26 14:07:08;;;;;;;1.38;0.90;;;;;;;30.13;46.52;95960.47;5020288;28;20240;-76
2022/06/26 14:09:38;;;;;;;0.85;0.70;;;;;;;30.41;45.04;95966.38;5045502;22;20217;-69
2022/06/26 14:12:05;;;;;;;1.30;0.90;;;;;;;31.58;47.97;95964.75;5031388;28;20216;-70
2022/06/26 14:14:32;;;;;;;3.35;0.88;;;;;;;32.66;43.38;95967.28;5028484;28;20197;-69
2022/06/26 14:16:59;;;;;;;0.70;0.70;;;;;;;33.19;43.07;95965.81;5028984;28;20574;-70
2022/06/26 14:19:25;;;;;;;0.85;0.82;;;;;;;33.69;43.16;95962.91;5028622;28;20232;-68
2022/06/26 14:25:55;;;;;;;1.77;0.73;;;;;;;34.17;41.04;95955.13;5028029;28;20228;-70
2022/06/26 14:27:25;;;;;;;1.52;0.70;;;;;;;34.45;40.79;95958.97;5021291;28;21128;-69
2022/06/26 14:29:53;;;;;;;0.60;0.60;;;;;;;33.78;41.93;95962.88;5016170;28;20222;-70
2022/06/26 14:32:20;;;;;;;0.77;0.70;;;;;;;32.59;43.26;95956.03;5027478;28;20207;-69
2022/06/26 14:34:46;;;;;;;5.47;0.90;;;;;;;32.13;40.54;95962.06;5023047;28;20205;-68
2022/06/26 14:37:13;;;;;;;0.88;0.70;;;;;;;31.44;38.16;95958.56;5019978;28;20206;-68
2022/06/26 14:39:39;;;;;;;1.15;0.90;;;;;;;31.12;40.94;95952.66;5030875;28;20217;-69
2022/06/26 14:42:06;;;;;;;2.55;0.98;;;;;;;31.19;46.11;95951.09;5032118;28;20236;-68
2022/06/26 14:44:32;;;;;;;1.17;0.73;;;;;;;31.52;46.12;95952.41;5031629;28;20205;-68
2022/06/26 14:47:00;;;;;;;0.90;0.80;;;;;;;30.98;47.33;95955.47;5031868;28;20205;-68
2022/06/26 14:49:27;;;;;;;1.23;0.80;;;;;;;31.34;46.12;95947.97;5031242;28;20228;-69
2022/06/26 14:51:53;;;;;;;0.90;0.90;;;;;;;32.29;46.61;95955.06;5031699;28;20585;-70
2022/06/26 14:54:20;;;;;;;1.00;0.90;;;;;;;32.57;42.63;95947.38;5031440;28;20224;-70
2022/06/26 14:56:46;;;;;;;0.80;0.70;;;;;;;33.10;40.17;95940.44;5031767;28;20210;-70
2022/06/26 14:59:13;;;;;;;0.80;0.80;;;;;;;33.39;40.13;95944.84;5031731;28;20229;-69
2022/06/26 15:01:39;;;;;;;1.13;1.02;;;;;;;33.83;38.40;95946.28;5031578;28;20214;-69
2022/06/26 15:04:07;;;;;;;1.10;0.90;;;;;;;34.12;36.38;95949.84;5027943;28;20205;-68
2022/06/26 15:06:34;;;;;;;1.02;0.75;;;;;;;34.14;36.68;95939.38;5019670;28;20209;-67
2022/06/26 15:09:00;;;;;;;3.65;0.70;;;;;;;34.45;37.98;95939.81;5025744;28;20229;-69
2022/06/26 15:11:27;;;;;;;3.20;0.70;;;;;;;34.63;33.79;95930.34;5031448;28;20198;-70
2022/06/26 15:13:53;;;;;;;1.20;0.80;;;;;;;34.27;40.09;95927.38;5030776;28;20200;-70
2022/06/26 15:16:20;;;;;;;1.55;0.80;;;;;;;34.56;36.89;95916.38;5030996;28;20213;-69
2022/06/26 15:18:46;;;;;;;2.22;0.82;;;;;;;34.95;36.80;95924.88;5031066;28;20202;-69
2022/06/26 15:21:14;;;;;;;1.10;0.88;;;;;;;35.03;35.19;95918.53;5030999;28;20217;-69
2022/06/26 15:23:40;;;;;;;0.90;0.80;;;;;;;34.53;36.22;95919.81;5031101;28;20208;-69
2022/06/26 15:26:07;;;;;;;1.10;0.82;;;;;;;34.55;35.49;95923.81;5031320;28;20218;-68
2022/06/26 15:28:33;;;;;;;0.70;0.70;;;;;;;34.09;35.35;95921.22;5030976;28;20206;-70
2022/06/26 15:31:00;;;;;;;1.73;0.65;;;;;;;34.55;36.50;95912.84;5031005;28;20225;-70
2022/06/26 15:33:26;;;;;;;1.20;0.90;;;;;;;34.44;38.34;95910.84;5030687;28;20202;-70
2022/06/26 15:35:53;;;;;;;4.28;0.77;;;;;;;34.33;35.10;95912.34;5020257;28;20605;-68
2022/06/26 15:38:23;;;;;;;4.93;1.90;;;;;;;34.34;34.00;95917.50;5020392;28;20559;-70
2022/06/26 15:40:49;;;;;;;3.05;0.80;;;;;;;34.26;38.56;95909.38;5030976;28;20252;-70
2022/06/26 15:43:16;;;;;;;1.77;0.70;;;;;;;34.39;37.48;95905.56;5030157;28;20201;-69
2022/06/26 15:45:42;;;;;;;2.00;0.80;;;;;;;34.24;34.51;95906.16;5030790;28;20205;-69
2022/06/26 15:48:11;;;;;;;1.05;0.63;;;;;;;34.39;34.92;95902.81;5030697;28;20689;-70
2022/06/26 15:50:38;;;;;;;0.90;0.80;;;;;;;34.62;39.56;95904.88;5029960;28;20311;-70
2022/06/26 15:53:05;;;;;;;2.00;0.98;;;;;;;35.01;35.75;95907.91;5030384;28;20209;-69
2022/06/26 15:55:32;;;;;;;1.42;0.70;;;;;;;34.69;36.00;95908.69;5030667;28;20574;-70